Time,TemperatureF,DewpointF,PressureIn,WindDirection,WindDirectionDegrees,WindSpeedMPH,WindSpeedGustMPH,Humidity,HourlyPrecipIn,Conditions,Clouds,dailyrainin,SoftwareType,DateUTC
2015-05-22 00:04:00,54.9,43.4,29.76,NNE,26,0.0,0.0,65,0.00,,---,0.00,VWS V14.01,2015-05-22 04:04:00,
2015-05-22 00:09:00,54.8,42.9,29.76,North,11,0.0,0.0,64,0.00,,---,0.00,VWS V14.01,2015-05-22 04:09:00,
2015-05-22 00:11:00,53.6,43.3,29.75,NE,34,0.0,0.0,68,0.00,,---,0.00,VWS V14.01,2015-05-22 04:11:00,
2015-05-22 00:12:00,53.6,43.3,29.75,NE,35,0.0,0.0,68,0.00,,---,0.00,VWS V14.01,2015-05-22 04:12:00,
2015-05-22 00:13:00,53.6,42.9,29.75,NE,34,0.0,0.0,67,0.00,,---,0.00,VWS V14.01,2015-05-22 04:13:00,
2015-05-22 00:14:00,54.6,42.7,29.76,North,11,0.0,0.0,64,0.00,,---,0.00,VWS V14.01,2015-05-22 04:14:00,
2015-05-22 00:15:00,53.6,42.9,29.75,NE,35,0.0,0.0,67,0.00,,---,0.00,VWS V14.01,2015-05-22 04:15:00,
2015-05-22 00:19:00,54.5,43.0,29.76,NNE,13,0.0,0.0,65,0.00,,---,0.00,VWS V14.01,2015-05-22 04:19:00,
2015-05-22 00:24:00,54.5,44.2,29.76,NNE,13,0.0,0.0,68,0.00,,---,0.00,VWS V14.01,2015-05-22 04:24:00,
2015-05-22 00:29:00,54.3,43.2,29.76,NNE,13,0.0,0.0,66,0.00,,---,0.00,VWS V14.01,2015-05-22 04:29:00,
2015-05-22 00:34:00,54.1,43.0,29.76,NNE,13,0.0,0.0,66,0.00,,---,0.00,VWS V14.01,2015-05-22 04:34:00,
2015-05-22 00:39:00,54.0,43.7,29.76,NNE,13,0.0,0.0,68,0.00,,---,0.00,VWS V14.01,2015-05-22 04:39:00,
2015-05-22 00:44:00,53.9,42.8,29.76,NNE,13,0.0,0.0,66,0.00,,---,0.00,VWS V14.01,2015-05-22 04:44:00,
2015-05-22 00:49:00,53.9,43.2,29.76,NE,35,0.0,3.0,67,0.00,,---,0.00,VWS V14.01,2015-05-22 04:49:00,
2015-05-22 00:54:00,53.8,43.1,29.75,NE,34,0.0,0.0,67,0.00,,---,0.00,VWS V14.01,2015-05-22 04:54:00,
2015-05-22 00:59:00,53.7,43.0,29.75,NE,34,0.0,0.0,67,0.00,,---,0.00,VWS V14.01,2015-05-22 04:59:00,
2015-05-22 01:04:00,53.7,42.6,29.75,NE,35,0.0,0.0,66,0.00,,---,0.00,VWS V14.01,2015-05-22 05:04:00,
2015-05-22 01:09:00,53.6,43.3,29.75,NE,34,0.0,0.0,68,0.00,,---,0.00,VWS V14.01,2015-05-22 05:09:00,
2015-05-22 01:14:00,53.5,42.8,29.75,NE,34,0.0,0.0,67,0.00,,---,0.00,VWS V14.01,2015-05-22 05:14:00,
2015-05-22 01:19:00,53.5,42.8,29.75,NE,34,0.0,0.0,67,0.00,,---,0.00,VWS V14.01,2015-05-22 05:19:00,
2015-05-22 01:24:00,53.5,42.8,29.74,NE,35,0.0,0.0,67,0.00,,---,0.00,VWS V14.01,2015-05-22 05:24:00,
2015-05-22 01:29:00,53.4,43.1,29.75,NE,39,0.0,0.0,68,0.00,,---,0.00,VWS V14.01,2015-05-22 05:29:00,
2015-05-22 01:34:00,53.3,43.0,29.75,NE,39,0.0,0.0,68,0.00,,---,0.00,VWS V14.01,2015-05-22 05:34:00,
2015-05-22 01:39:00,53.2,42.9,29.74,NE,38,0.0,0.0,68,0.00,,---,0.00,VWS V14.01,2015-05-22 05:39:00,
2015-05-22 01:41:00,52.4,44.0,29.73,NE,36,0.0,0.0,73,0.00,,---,0.00,VWS V14.01,2015-05-22 05:41:00,
2015-05-22 01:42:00,52.4,44.0,29.73,NE,36,0.0,0.0,73,0.00,,---,0.00,VWS V14.01,2015-05-22 05:42:00,
2015-05-22 01:43:00,52.4,44.0,29.73,NE,36,0.0,0.0,73,0.00,,---,0.00,VWS V14.01,2015-05-22 05:43:00,
2015-05-22 01:44:00,53.2,43.3,29.75,NE,38,0.0,0.0,69,0.00,,---,0.00,VWS V14.01,2015-05-22 05:44:00,
2015-05-22 01:45:00,52.4,43.7,29.73,NE,36,0.0,0.0,72,0.00,,---,0.00,VWS V14.01,2015-05-22 05:45:00,
2015-05-22 01:46:00,52.4,43.7,29.73,NE,36,0.0,0.0,72,0.00,,---,0.00,VWS V14.01,2015-05-22 05:46:00,
2015-05-22 01:49:00,53.1,43.2,29.74,NE,38,0.0,0.0,69,0.00,,---,0.00,VWS V14.01,2015-05-22 05:49:00,
2015-05-22 01:54:00,53.0,43.1,29.75,NE,39,0.0,0.0,69,0.00,,---,0.00,VWS V14.01,2015-05-22 05:54:00,
2015-05-22 01:59:00,53.0,43.1,29.75,NE,44,0.0,0.0,69,0.00,,---,0.00,VWS V14.01,2015-05-22 05:59:00,
2015-05-22 02:04:00,53.0,44.2,29.74,NE,44,0.0,0.0,72,0.00,,---,0.00,VWS V14.01,2015-05-22 06:04:00,
2015-05-22 02:09:00,52.9,44.1,29.74,NE,44,0.0,0.0,72,0.00,,---,0.00,VWS V14.01,2015-05-22 06:09:00,
2015-05-22 02:14:00,52.7,44.3,29.73,NE,44,0.0,0.0,73,0.00,,---,0.00,VWS V14.01,2015-05-22 06:14:00,
2015-05-22 02:19:00,52.6,43.5,29.73,NE,44,0.0,0.0,71,0.00,,---,0.00,VWS V14.01,2015-05-22 06:19:00,
2015-05-22 02:24:00,52.5,43.4,29.73,NE,36,0.0,0.0,71,0.00,,---,0.00,VWS V14.01,2015-05-22 06:24:00,
2015-05-22 02:29:00,52.5,43.4,29.73,NE,36,0.0,0.0,71,0.00,,---,0.00,VWS V14.01,2015-05-22 06:29:00,
2015-05-22 02:34:00,52.4,43.3,29.73,NE,36,0.0,0.0,71,0.00,,---,0.00,VWS V14.01,2015-05-22 06:34:00,
2015-05-22 02:39:00,52.4,43.3,29.73,NE,36,0.0,0.0,71,0.00,,---,0.00,VWS V14.01,2015-05-22 06:39:00,
2015-05-22 02:44:00,52.4,43.7,29.73,NE,36,0.0,0.0,72,0.00,,---,0.00,VWS V14.01,2015-05-22 06:44:00,
2015-05-22 02:49:00,52.3,43.5,29.73,NE,36,0.0,0.0,72,0.00,,---,0.00,VWS V14.01,2015-05-22 06:49:00,
2015-05-22 02:54:00,52.3,43.9,29.72,NE,36,0.0,0.0,73,0.00,,---,0.00,VWS V14.01,2015-05-22 06:54:00,
2015-05-22 02:59:00,52.3,43.9,29.73,NE,36,0.0,0.0,73,0.00,,---,0.00,VWS V14.01,2015-05-22 06:59:00,
2015-05-22 03:04:00,52.2,44.2,29.73,NE,36,0.0,0.0,74,0.00,,---,0.00,VWS V14.01,2015-05-22 07:04:00,
2015-05-22 03:09:00,52.2,43.8,29.72,NE,36,0.0,0.0,73,0.00,,---,0.00,VWS V14.01,2015-05-22 07:09:00,
2015-05-22 03:14:00,52.2,44.2,29.72,NE,36,0.0,0.0,74,0.00,,---,0.00,VWS V14.01,2015-05-22 07:14:00,
2015-05-22 03:19:00,52.1,44.1,29.72,NE,36,0.0,0.0,74,0.00,,---,0.00,VWS V14.01,2015-05-22 07:19:00,
2015-05-22 03:24:00,52.1,44.4,29.72,NE,36,0.0,0.0,75,0.00,,---,0.00,VWS V14.01,2015-05-22 07:24:00,
2015-05-22 03:29:00,52.0,44.7,29.72,NE,36,0.0,0.0,76,0.00,,---,0.00,VWS V14.01,2015-05-22 07:29:00,
2015-05-22 03:34:00,51.9,44.6,29.72,NE,36,0.0,0.0,76,0.00,,---,0.00,VWS V14.01,2015-05-22 07:34:00,
2015-05-22 03:39:00,51.9,44.6,29.72,NE,36,0.0,0.0,76,0.00,,---,0.00,VWS V14.01,2015-05-22 07:39:00,
2015-05-22 03:44:00,51.8,44.5,29.72,NE,36,0.0,0.0,76,0.00,,---,0.00,VWS V14.01,2015-05-22 07:44:00,
2015-05-22 03:49:00,51.8,44.5,29.72,NE,36,0.0,0.0,76,0.00,,---,0.00,VWS V14.01,2015-05-22 07:49:00,
2015-05-22 03:54:00,51.7,44.7,29.72,NE,36,0.0,0.0,77,0.00,,---,0.00,VWS V14.01,2015-05-22 07:54:00,
2015-05-22 04:04:00,51.5,44.9,29.72,NE,36,0.0,0.0,78,0.00,,---,0.00,VWS V14.01,2015-05-22 08:04:00,
2015-05-22 04:09:00,51.5,44.9,29.72,NE,36,0.0,0.0,78,0.00,,---,0.00,VWS V14.01,2015-05-22 08:09:00,
2015-05-22 04:14:00,51.4,44.8,29.72,NE,36,0.0,0.0,78,0.00,,---,0.00,VWS V14.01,2015-05-22 08:14:00,
2015-05-22 04:19:00,51.3,44.7,29.72,NE,36,0.0,0.0,78,0.00,,---,0.00,VWS V14.01,2015-05-22 08:19:00,
2015-05-22 04:24:00,51.3,44.7,29.73,NE,36,0.0,0.0,78,0.00,,---,0.00,VWS V14.01,2015-05-22 08:24:00,
2015-05-22 04:29:00,51.3,45.0,29.73,NE,36,0.0,0.0,79,0.00,,---,0.00,VWS V14.01,2015-05-22 08:29:00,
2015-05-22 04:34:00,51.3,45.0,29.73,NE,36,0.0,0.0,79,0.00,,---,0.00,VWS V14.01,2015-05-22 08:34:00,
2015-05-22 04:38:00,50.4,45.4,29.74,NE,36,0.0,0.0,83,0.00,,---,0.00,VWS V14.01,2015-05-22 08:38:00,
2015-05-22 04:39:00,51.3,45.3,29.73,NE,36,0.0,0.0,80,0.00,,---,0.00,VWS V14.01,2015-05-22 08:39:00,
2015-05-22 04:40:00,50.4,45.4,29.74,NE,36,0.0,0.0,83,0.00,,---,0.00,VWS V14.01,2015-05-22 08:40:00,
2015-05-22 04:41:00,50.4,45.4,29.74,NE,36,0.0,0.0,83,0.00,,---,0.00,VWS V14.01,2015-05-22 08:41:00,
2015-05-22 04:42:00,50.4,45.4,29.74,NE,36,0.0,0.0,83,0.00,,---,0.00,VWS V14.01,2015-05-22 08:42:00,
2015-05-22 04:43:00,50.4,45.4,29.73,NE,36,0.0,0.0,83,0.00,,---,0.00,VWS V14.01,2015-05-22 08:43:00,
2015-05-22 04:44:00,51.2,45.2,29.73,NE,36,0.0,0.0,80,0.00,,---,0.00,VWS V14.01,2015-05-22 08:44:00,
2015-05-22 04:49:00,51.1,45.2,29.72,NE,36,0.0,0.0,80,0.00,,---,0.00,VWS V14.01,2015-05-22 08:49:00,
2015-05-22 04:54:00,51.0,45.1,29.73,NE,36,0.0,0.0,80,0.00,,---,0.00,VWS V14.01,2015-05-22 08:54:00,
2015-05-22 04:59:00,51.0,45.4,29.73,NE,36,0.0,0.0,81,0.00,,---,0.00,VWS V14.01,2015-05-22 08:59:00,
2015-05-22 05:04:00,50.9,45.6,29.73,NE,36,0.0,0.0,82,0.00,,---,0.00,VWS V14.01,2015-05-22 09:04:00,
2015-05-22 05:09:00,50.8,45.5,29.73,NE,36,0.0,0.0,82,0.00,,---,0.00,VWS V14.01,2015-05-22 09:09:00,
2015-05-22 05:14:00,50.8,45.8,29.73,NE,36,0.0,0.0,83,0.00,,---,0.00,VWS V14.01,2015-05-22 09:14:00,
2015-05-22 05:19:00,50.6,45.6,29.73,NE,36,0.0,0.0,83,0.00,,---,0.00,VWS V14.01,2015-05-22 09:19:00,
2015-05-22 05:24:00,50.5,45.2,29.73,NE,36,0.0,0.0,82,0.00,,---,0.00,VWS V14.01,2015-05-22 09:24:00,
2015-05-22 05:29:00,50.4,45.4,29.74,NE,36,0.0,0.0,83,0.00,,---,0.00,VWS V14.01,2015-05-22 09:29:00,
2015-05-22 05:34:00,50.4,45.4,29.74,NE,36,0.0,0.0,83,0.00,,---,0.00,VWS V14.01,2015-05-22 09:34:00,
2015-05-22 05:39:00,50.4,45.4,29.74,NE,36,0.0,0.0,83,0.00,,---,0.00,VWS V14.01,2015-05-22 09:39:00,
2015-05-22 05:42:00,51.1,47.4,29.74,NE,36,0.0,0.0,87,0.00,,---,0.00,VWS V14.01,2015-05-22 09:42:00,
2015-05-22 05:43:00,51.1,47.4,29.74,NE,36,0.0,0.0,87,0.00,,---,0.00,VWS V14.01,2015-05-22 09:43:00,
2015-05-22 05:44:00,50.3,45.3,29.74,NE,36,0.0,0.0,83,0.00,,---,0.00,VWS V14.01,2015-05-22 09:44:00,
2015-05-22 05:45:00,51.2,47.5,29.74,NE,36,0.0,0.0,87,0.00,,---,0.00,VWS V14.01,2015-05-22 09:45:00,
2015-05-22 05:46:00,51.2,47.8,29.74,NE,36,0.0,0.0,88,0.00,,---,0.00,VWS V14.01,2015-05-22 09:46:00,
2015-05-22 05:48:00,51.3,47.9,29.74,NE,36,0.0,0.0,88,0.00,,---,0.00,VWS V14.01,2015-05-22 09:48:00,
2015-05-22 05:49:00,50.4,45.4,29.74,NE,36,0.0,0.0,83,0.00,,---,0.00,VWS V14.01,2015-05-22 09:49:00,
2015-05-22 05:54:00,50.4,45.8,29.74,NE,36,0.0,0.0,84,0.00,,---,0.00,VWS V14.01,2015-05-22 09:54:00,
2015-05-22 05:59:00,50.5,46.2,29.74,NE,36,0.0,0.0,85,0.00,,---,0.00,VWS V14.01,2015-05-22 09:59:00,
2015-05-22 06:04:00,50.5,45.8,29.74,NE,36,0.0,0.0,84,0.00,,---,0.00,VWS V14.01,2015-05-22 10:04:00,
2015-05-22 06:09:00,50.5,46.2,29.74,NE,36,0.0,0.0,85,0.00,,---,0.00,VWS V14.01,2015-05-22 10:09:00,
2015-05-22 06:14:00,50.5,46.2,29.74,NE,36,0.0,0.0,85,0.00,,---,0.00,VWS V14.01,2015-05-22 10:14:00,
2015-05-22 06:19:00,50.6,46.3,29.74,NE,36,0.0,0.0,85,0.00,,---,0.00,VWS V14.01,2015-05-22 10:19:00,
2015-05-22 06:24:00,50.7,46.7,29.74,NE,36,0.0,0.0,86,0.00,,---,0.00,VWS V14.01,2015-05-22 10:24:00,
2015-05-22 06:29:00,50.8,46.8,29.74,NE,36,0.0,0.0,86,0.00,,---,0.00,VWS V14.01,2015-05-22 10:29:00,
2015-05-22 06:34:00,50.9,47.2,29.74,NE,36,0.0,0.0,87,0.00,,---,0.00,VWS V14.01,2015-05-22 10:34:00,
2015-05-22 06:39:00,51.0,47.3,29.74,NE,36,0.0,0.0,87,0.00,,---,0.00,VWS V14.01,2015-05-22 10:39:00,
2015-05-22 06:44:00,51.1,47.4,29.74,NE,36,0.0,0.0,87,0.00,,---,0.00,VWS V14.01,2015-05-22 10:44:00,
2015-05-22 06:54:00,51.5,48.1,29.74,NE,36,0.0,0.0,88,0.00,,---,0.00,VWS V14.01,2015-05-22 10:54:00,
2015-05-22 06:55:00,55.5,46.6,29.74,SE,130,0.0,0.0,72,0.00,,---,0.00,VWS V14.01,2015-05-22 10:55:00,
2015-05-22 06:56:00,55.6,46.7,29.74,SE,130,0.0,0.0,72,0.00,,---,0.00,VWS V14.01,2015-05-22 10:56:00,
2015-05-22 06:57:00,55.7,46.8,29.74,SE,130,0.0,0.0,72,0.00,,---,0.00,VWS V14.01,2015-05-22 10:57:00,
2015-05-22 06:58:00,51.7,48.3,29.74,NE,36,0.0,0.0,88,0.00,,---,0.00,VWS V14.01,2015-05-22 10:58:00,
2015-05-22 07:03:00,51.8,48.4,29.74,NE,36,0.0,0.0,88,0.00,,---,0.00,VWS V14.01,2015-05-22 11:03:00,
2015-05-22 07:08:00,52.0,48.3,29.74,NE,36,0.0,0.0,87,0.00,,---,0.00,VWS V14.01,2015-05-22 11:08:00,
2015-05-22 07:13:00,52.2,48.2,29.74,NE,36,0.0,0.0,86,0.00,,---,0.00,VWS V14.01,2015-05-22 11:13:00,
2015-05-22 07:18:00,52.2,47.8,29.74,NE,36,0.0,0.0,85,0.00,,---,0.00,VWS V14.01,2015-05-22 11:18:00,
2015-05-22 07:23:00,52.3,47.6,29.74,NE,36,0.0,0.0,84,0.00,,---,0.00,VWS V14.01,2015-05-22 11:23:00,
2015-05-22 07:28:00,52.4,47.1,29.74,NE,36,0.0,0.0,82,0.00,,---,0.00,VWS V14.01,2015-05-22 11:28:00,
2015-05-22 07:33:00,52.7,47.0,29.74,NE,36,0.0,0.0,81,0.00,,---,0.00,VWS V14.01,2015-05-22 11:33:00,
2015-05-22 07:38:00,53.2,46.2,29.74,North,11,0.0,0.0,77,0.00,,---,0.00,VWS V14.01,2015-05-22 11:38:00,
2015-05-22 07:43:00,54.0,45.9,29.74,SE,130,0.0,1.0,74,0.00,,---,0.00,VWS V14.01,2015-05-22 11:43:00,
2015-05-22 07:48:00,54.8,47.0,29.74,SE,130,0.0,0.0,75,0.00,,---,0.00,VWS V14.01,2015-05-22 11:48:00,
2015-05-22 07:53:00,55.4,46.5,29.74,SE,130,0.0,0.0,72,0.00,,---,0.00,VWS V14.01,2015-05-22 11:53:00,
2015-05-22 08:03:00,55.9,46.3,29.74,SE,130,0.0,0.0,70,0.00,,---,0.00,VWS V14.01,2015-05-22 12:03:00,
2015-05-22 08:08:00,55.9,46.3,29.74,SE,130,0.0,0.0,70,0.00,,---,0.00,VWS V14.01,2015-05-22 12:08:00,
2015-05-22 08:13:00,55.9,46.3,29.74,SE,130,0.0,0.0,70,0.00,,---,0.00,VWS V14.01,2015-05-22 12:13:00,
2015-05-22 08:18:00,55.9,46.3,29.74,SE,130,0.0,0.0,70,0.00,,---,0.00,VWS V14.01,2015-05-22 12:18:00,
2015-05-22 08:23:00,56.2,45.8,29.74,SE,130,0.0,0.0,68,0.00,,---,0.00,VWS V14.01,2015-05-22 12:23:00,
2015-05-22 08:28:00,56.8,45.2,29.74,SE,130,1.0,1.0,65,0.00,,---,0.00,VWS V14.01,2015-05-22 12:28:00,
2015-05-22 08:33:00,57.4,46.2,29.74,SE,130,0.0,0.0,66,0.00,,---,0.00,VWS V14.01,2015-05-22 12:33:00,
2015-05-22 08:38:00,58.1,46.0,29.74,SE,130,0.0,1.0,64,0.00,,---,0.00,VWS V14.01,2015-05-22 12:38:00,
2015-05-22 08:43:00,58.8,45.8,29.74,SE,130,0.0,1.0,62,0.00,,---,0.00,VWS V14.01,2015-05-22 12:43:00,
2015-05-22 08:48:00,59.0,45.6,29.74,SE,130,0.0,0.0,61,0.00,,---,0.00,VWS V14.01,2015-05-22 12:48:00,
2015-05-22 08:53:00,59.5,44.7,29.74,WNW,301,0.0,3.0,58,0.00,,---,0.00,VWS V14.01,2015-05-22 12:53:00,
2015-05-22 08:58:00,60.4,46.0,29.74,WNW,300,1.0,1.0,59,0.00,,---,0.00,VWS V14.01,2015-05-22 12:58:00,
2015-05-22 09:03:00,61.3,45.5,29.74,WNW,302,0.0,1.0,56,0.00,,---,0.00,VWS V14.01,2015-05-22 13:03:00,
2015-05-22 09:08:00,62.0,47.5,29.74,WNW,302,0.0,0.0,59,0.00,,---,0.00,VWS V14.01,2015-05-22 13:08:00,
2015-05-22 09:13:00,63.0,46.6,29.74,East,101,1.0,2.0,55,0.00,,---,0.00,VWS V14.01,2015-05-22 13:13:00,
2015-05-22 09:18:00,63.7,45.2,29.74,NW,311,2.0,2.0,51,0.00,,---,0.00,VWS V14.01,2015-05-22 13:18:00,
2015-05-22 09:23:00,64.1,45.1,29.73,NW,309,0.0,0.0,50,0.00,,---,0.00,VWS V14.01,2015-05-22 13:23:00,
2015-05-22 09:28:00,64.4,44.8,29.73,NW,306,0.0,2.0,49,0.00,,---,0.00,VWS V14.01,2015-05-22 13:28:00,
2015-05-22 09:33:00,64.5,43.8,29.73,WNW,302,0.0,1.0,47,0.00,,---,0.00,VWS V14.01,2015-05-22 13:33:00,
2015-05-22 09:38:00,64.5,46.0,29.73,WNW,302,0.0,1.0,51,0.00,,---,0.00,VWS V14.01,2015-05-22 13:38:00,
2015-05-22 09:43:00,64.8,44.7,29.73,WNW,296,0.0,1.0,48,0.00,,---,0.00,VWS V14.01,2015-05-22 13:43:00,
2015-05-22 09:48:00,64.9,44.2,29.73,NW,306,2.0,2.0,47,0.00,,---,0.00,VWS V14.01,2015-05-22 13:48:00,
2015-05-22 09:53:00,65.0,43.7,29.73,WSW,257,0.0,1.0,46,0.00,,---,0.00,VWS V14.01,2015-05-22 13:53:00,
2015-05-22 09:58:00,65.1,43.8,29.73,NW,315,2.0,2.0,46,0.00,,---,0.00,VWS V14.01,2015-05-22 13:58:00,
2015-05-22 10:03:00,65.4,44.1,29.73,West,274,0.0,0.0,46,0.00,,---,0.00,VWS V14.01,2015-05-22 14:03:00,
2015-05-22 10:08:00,65.6,44.8,29.73,SE,133,1.0,1.0,47,0.00,,---,0.00,VWS V14.01,2015-05-22 14:08:00,
2015-05-22 10:13:00,65.7,43.2,29.73,WNW,303,1.0,1.0,44,0.00,,---,0.00,VWS V14.01,2015-05-22 14:13:00,
2015-05-22 10:18:00,65.9,44.0,29.73,WNW,302,0.0,2.0,45,0.00,,---,0.00,VWS V14.01,2015-05-22 14:18:00,
2015-05-22 10:23:00,66.1,44.7,29.73,SE,124,1.0,1.0,46,0.00,,---,0.00,VWS V14.01,2015-05-22 14:23:00,
2015-05-22 10:28:00,66.6,45.8,29.73,NNW,331,0.0,2.0,47,0.00,,---,0.00,VWS V14.01,2015-05-22 14:28:00,
2015-05-22 10:33:00,67.0,43.8,29.73,NNW,330,0.0,1.0,43,0.00,,---,0.00,VWS V14.01,2015-05-22 14:33:00,
2015-05-22 10:38:00,67.3,43.5,29.72,NW,309,2.0,4.0,42,0.00,,---,0.00,VWS V14.01,2015-05-22 14:38:00,
2015-05-22 10:43:00,67.5,44.8,29.73,WNW,302,2.0,4.0,44,0.00,,---,0.00,VWS V14.01,2015-05-22 14:43:00,
2015-05-22 10:48:00,67.3,44.1,29.72,West,273,0.0,1.0,43,0.00,,---,0.00,VWS V14.01,2015-05-22 14:48:00,
2015-05-22 10:53:00,67.4,44.2,29.73,SE,131,2.0,2.0,43,0.00,,---,0.00,VWS V14.01,2015-05-22 14:53:00,
2015-05-22 10:58:00,67.7,45.6,29.73,SSW,213,0.0,1.0,45,0.00,,---,0.00,VWS V14.01,2015-05-22 14:58:00,
2015-05-22 11:03:00,68.0,44.7,29.73,WNW,300,2.0,4.0,43,0.00,,---,0.00,VWS V14.01,2015-05-22 15:03:00,
2015-05-22 11:08:00,68.0,43.5,29.72,South,188,0.0,1.0,41,0.00,,---,0.00,VWS V14.01,2015-05-22 15:08:00,
2015-05-22 11:13:00,67.9,42.7,29.72,East,81,0.0,0.0,40,0.00,,---,0.00,VWS V14.01,2015-05-22 15:13:00,
2015-05-22 11:18:00,67.9,45.2,29.72,West,277,2.0,3.0,44,0.00,,---,0.00,VWS V14.01,2015-05-22 15:18:00,
2015-05-22 11:23:00,68.0,44.7,29.72,WNW,295,0.0,0.0,43,0.00,,---,0.00,VWS V14.01,2015-05-22 15:23:00,
2015-05-22 11:28:00,68.5,46.9,29.72,ESE,103,0.0,1.0,46,0.00,,---,0.00,VWS V14.01,2015-05-22 15:28:00,
2015-05-22 11:33:00,69.2,46.4,29.72,NW,319,0.0,0.0,44,0.00,,---,0.00,VWS V14.01,2015-05-22 15:33:00,
2015-05-22 11:38:00,69.3,44.0,29.72,NW,317,0.0,2.0,40,0.00,,---,0.00,VWS V14.01,2015-05-22 15:38:00,
2015-05-22 11:43:00,68.9,45.5,29.72,WSW,254,0.0,0.0,43,0.00,,---,0.00,VWS V14.01,2015-05-22 15:43:00,
2015-05-22 11:48:00,69.1,45.7,29.72,WNW,297,0.0,0.0,43,0.00,,---,0.00,VWS V14.01,2015-05-22 15:48:00,
2015-05-22 11:53:00,70.0,44.6,29.72,WNW,299,1.0,1.0,40,0.00,,---,0.00,VWS V14.01,2015-05-22 15:53:00,
2015-05-22 11:58:00,70.5,44.4,29.72,NW,309,3.0,5.0,39,0.00,,---,0.00,VWS V14.01,2015-05-22 15:58:00,
2015-05-22 12:03:00,70.6,44.5,29.71,NW,310,0.0,0.0,39,0.00,,---,0.00,VWS V14.01,2015-05-22 16:03:00,
2015-05-22 12:08:00,70.6,43.8,29.71,South,169,2.0,3.0,38,0.00,,---,0.00,VWS V14.01,2015-05-22 16:08:00,
2015-05-22 12:13:00,70.0,43.2,29.71,WNW,300,3.0,3.0,38,0.00,,---,0.00,VWS V14.01,2015-05-22 16:13:00,
2015-05-22 12:15:00,72.6,44.9,29.70,NNW,333,2.0,5.0,37,0.00,,---,0.00,VWS V14.01,2015-05-22 16:15:00,
2015-05-22 12:16:00,72.6,43.4,29.70,NW,322,4.0,7.0,35,0.00,,---,0.00,VWS V14.01,2015-05-22 16:16:00,
2015-05-22 12:17:00,72.4,44.0,29.70,East,99,2.0,5.0,36,0.00,,---,0.00,VWS V14.01,2015-05-22 16:17:00,
2015-05-22 12:18:00,69.2,43.2,29.71,NW,304,0.0,0.0,39,0.00,,---,0.00,VWS V14.01,2015-05-22 16:18:00,
2015-05-22 12:19:00,72.0,44.3,29.70,East,96,0.0,1.0,37,0.00,,---,0.00,VWS V14.01,2015-05-22 16:19:00,
2015-05-22 12:20:00,71.8,45.5,29.70,ESE,105,4.0,4.0,39,0.00,,---,0.00,VWS V14.01,2015-05-22 16:20:00,
2015-05-22 12:23:00,69.4,42.7,29.70,WNW,290,0.0,1.0,38,0.00,,---,0.00,VWS V14.01,2015-05-22 16:23:00,
2015-05-22 12:25:00,71.3,44.4,29.70,NW,313,1.0,4.0,38,0.00,,---,0.00,VWS V14.01,2015-05-22 16:25:00,
2015-05-22 12:26:00,71.3,43.7,29.70,WSW,249,2.0,3.0,37,0.00,,---,0.00,VWS V14.01,2015-05-22 16:26:00,
2015-05-22 12:27:00,71.3,44.4,29.70,WNW,296,1.0,3.0,38,0.00,,---,0.00,VWS V14.01,2015-05-22 16:27:00,
2015-05-22 12:28:00,70.3,46.2,29.71,ENE,68,4.0,6.0,42,0.00,,---,0.00,VWS V14.01,2015-05-22 16:28:00,
2015-05-22 12:31:00,71.3,47.0,29.70,SSW,203,0.0,1.0,42,0.00,,---,0.00,VWS V14.01,2015-05-22 16:31:00,
2015-05-22 12:33:00,71.0,46.8,29.70,SW,221,2.0,2.0,42,0.00,,---,0.00,VWS V14.01,2015-05-22 16:33:00,
2015-05-22 12:38:00,70.7,45.2,29.70,NW,314,0.0,1.0,40,0.00,,---,0.00,VWS V14.01,2015-05-22 16:38:00,
2015-05-22 12:43:00,70.1,44.7,29.70,WNW,286,2.0,2.0,40,0.00,,---,0.00,VWS V14.01,2015-05-22 16:43:00,
2015-05-22 12:48:00,70.0,47.1,29.70,WNW,286,0.0,0.0,44,0.00,,---,0.00,VWS V14.01,2015-05-22 16:48:00,
2015-05-22 12:53:00,70.7,46.5,29.70,WNW,292,3.0,3.0,42,0.00,,---,0.00,VWS V14.01,2015-05-22 16:53:00,
2015-05-22 12:58:00,71.4,45.2,29.70,WNW,288,1.0,3.0,39,0.00,,---,0.00,VWS V14.01,2015-05-22 16:58:00,
2015-05-22 12:59:00,73.5,41.9,29.69,NNE,26,0.0,2.0,32,0.00,,---,0.00,VWS V14.01,2015-05-22 16:59:00,
2015-05-22 13:00:00,73.5,41.9,29.69,NNW,342,1.0,3.0,32,0.00,,---,0.00,VWS V14.01,2015-05-22 17:00:00,
2015-05-22 13:01:00,73.6,42.0,29.69,ESE,103,2.0,6.0,32,0.00,,---,0.00,VWS V14.01,2015-05-22 17:01:00,
2015-05-22 13:02:00,73.7,42.8,29.70,NW,310,3.0,3.0,33,0.00,,---,0.00,VWS V14.01,2015-05-22 17:02:00,
2015-05-22 13:03:00,72.0,44.3,29.70,NW,310,1.0,1.0,37,0.00,,---,0.00,VWS V14.01,2015-05-22 17:03:00,
2015-05-22 13:08:00,72.2,44.5,29.70,ENE,57,1.0,3.0,37,0.00,,---,0.00,VWS V14.01,2015-05-22 17:08:00,
2015-05-22 13:13:00,72.5,47.5,29.70,WNW,303,5.0,5.0,41,0.00,,---,0.00,VWS V14.01,2015-05-22 17:13:00,
2015-05-22 13:18:00,72.1,44.4,29.70,East,96,1.0,1.0,37,0.00,,---,0.00,VWS V14.01,2015-05-22 17:18:00,
2015-05-22 13:20:00,73.7,41.2,29.69,ENE,68,0.0,4.0,31,0.00,,---,0.00,VWS V14.01,2015-05-22 17:20:00,
2015-05-22 13:21:00,73.7,43.6,29.69,South,178,0.0,1.0,34,0.00,,---,0.00,VWS V14.01,2015-05-22 17:21:00,
2015-05-22 13:22:00,73.7,42.0,29.69,WNW,287,3.0,3.0,32,0.00,,---,0.00,VWS V14.01,2015-05-22 17:22:00,
2015-05-22 13:23:00,71.6,46.0,29.70,NW,307,4.0,4.0,40,0.00,,---,0.00,VWS V14.01,2015-05-22 17:23:00,
2015-05-22 13:24:00,73.7,42.0,29.70,WNW,302,0.0,4.0,32,0.00,,---,0.00,VWS V14.01,2015-05-22 17:24:00,
2015-05-22 13:25:00,73.8,42.1,29.70,WSW,238,0.0,2.0,32,0.00,,---,0.00,VWS V14.01,2015-05-22 17:25:00,
2015-05-22 13:28:00,71.2,44.3,29.69,WNW,296,2.0,3.0,38,0.00,,---,0.00,VWS V14.01,2015-05-22 17:28:00,
2015-05-22 13:33:00,71.7,45.5,29.69,SSE,155,3.0,3.0,39,0.00,,---,0.00,VWS V14.01,2015-05-22 17:33:00,
2015-05-22 13:38:00,72.7,44.2,29.69,NW,311,3.0,3.0,36,0.00,,---,0.00,VWS V14.01,2015-05-22 17:38:00,
2015-05-22 13:43:00,73.5,44.9,29.69,NNW,331,2.0,2.0,36,0.00,,---,0.00,VWS V14.01,2015-05-22 17:43:00,
2015-05-22 13:48:00,73.7,41.2,29.69,NW,309,2.0,2.0,31,0.00,,---,0.00,VWS V14.01,2015-05-22 17:48:00,
2015-05-22 13:53:00,73.4,41.0,29.69,NW,309,0.0,1.0,31,0.00,,---,0.00,VWS V14.01,2015-05-22 17:53:00,
2015-05-22 14:03:00,73.7,41.2,29.70,WNW,299,4.0,4.0,31,0.00,,---,0.00,VWS V14.01,2015-05-22 18:03:00,
2015-05-22 14:08:00,73.6,44.3,29.70,South,176,0.0,3.0,35,0.00,,---,0.00,VWS V14.01,2015-05-22 18:08:00,
2015-05-22 14:13:00,73.7,42.0,29.69,NW,318,0.0,1.0,32,0.00,,---,0.00,VWS V14.01,2015-05-22 18:13:00,
2015-05-22 14:19:00,73.3,40.0,29.72,NW,317,2.0,5.0,30,0.00,,---,0.00,VWS V14.01,2015-05-22 18:19:00,
2015-05-22 14:20:00,73.2,39.9,29.72,WNW,296,5.0,5.0,30,0.00,,---,0.00,VWS V14.01,2015-05-22 18:20:00,
2015-05-22 14:21:00,73.0,38.9,29.72,NW,304,0.0,1.0,29,0.00,,---,0.00,VWS V14.01,2015-05-22 18:21:00,
2015-05-22 14:22:00,72.8,40.4,29.72,NW,304,0.0,0.0,31,0.00,,---,0.00,VWS V14.01,2015-05-22 18:22:00,
2015-05-22 14:23:00,73.7,44.4,29.70,WNW,290,1.0,1.0,35,0.00,,---,0.00,VWS V14.01,2015-05-22 18:23:00,
2015-05-22 14:27:00,74.1,44.0,29.70,NW,311,0.0,0.0,34,0.00,,---,0.00,VWS V14.01,2015-05-22 18:27:00,
2015-05-22 14:32:00,74.1,39.8,29.70,WNW,299,3.0,3.0,29,0.00,,---,0.00,VWS V14.01,2015-05-22 18:32:00,
2015-05-22 14:37:00,73.9,40.5,29.70,WNW,291,2.0,3.0,30,0.00,,---,0.00,VWS V14.01,2015-05-22 18:37:00,
2015-05-22 14:42:00,73.2,39.9,29.71,SE,125,1.0,1.0,30,0.00,,---,0.00,VWS V14.01,2015-05-22 18:42:00,
2015-05-22 14:47:00,72.3,40.8,29.71,NW,314,0.0,0.0,32,0.00,,---,0.00,VWS V14.01,2015-05-22 18:47:00,
2015-05-22 14:52:00,72.2,41.5,29.71,NW,314,0.0,0.0,33,0.00,,---,0.00,VWS V14.01,2015-05-22 18:52:00,
2015-05-22 14:57:00,72.6,39.4,29.71,NW,326,0.0,6.0,30,0.00,,---,0.00,VWS V14.01,2015-05-22 18:57:00,
2015-05-22 15:02:00,73.0,40.6,29.71,WNW,288,1.0,4.0,31,0.00,,---,0.00,VWS V14.01,2015-05-22 19:02:00,
2015-05-22 15:07:00,73.5,41.9,29.71,WSW,245,0.0,2.0,32,0.00,,---,0.00,VWS V14.01,2015-05-22 19:07:00,
2015-05-22 15:12:00,73.7,41.2,29.71,West,261,0.0,2.0,31,0.00,,---,0.00,VWS V14.01,2015-05-22 19:12:00,
2015-05-22 15:17:00,73.5,41.9,29.71,SE,128,5.0,5.0,32,0.00,,---,0.00,VWS V14.01,2015-05-22 19:17:00,
2015-05-22 15:22:00,72.8,40.4,29.72,NW,304,0.0,2.0,31,0.00,,---,0.00,VWS V14.01,2015-05-22 19:22:00,
2015-05-22 15:27:00,72.7,40.3,29.72,NW,315,1.0,5.0,31,0.00,,---,0.00,VWS V14.01,2015-05-22 19:27:00,
2015-05-22 15:32:00,72.0,41.3,29.72,WSW,257,0.0,0.0,33,0.00,,---,0.00,VWS V14.01,2015-05-22 19:32:00,
2015-05-22 15:37:00,71.9,42.0,29.72,NNW,334,0.0,5.0,34,0.00,,---,0.00,VWS V14.01,2015-05-22 19:37:00,
2015-05-22 15:42:00,72.0,42.1,29.72,NW,311,2.0,2.0,34,0.00,,---,0.00,VWS V14.01,2015-05-22 19:42:00,
2015-05-22 15:47:00,71.5,41.7,29.72,NNW,336,1.0,2.0,34,0.00,,---,0.00,VWS V14.01,2015-05-22 19:47:00,
2015-05-22 15:57:00,71.3,42.3,29.73,NW,309,2.0,3.0,35,0.00,,---,0.00,VWS V14.01,2015-05-22 19:57:00,
2015-05-22 16:01:00,68.8,40.8,29.76,NW,305,0.0,0.0,36,0.00,,---,0.00,VWS V14.01,2015-05-22 20:01:00,
2015-05-22 16:02:00,71.6,44.0,29.73,NW,305,2.0,2.0,37,0.00,,---,0.00,VWS V14.01,2015-05-22 20:02:00,
2015-05-22 16:03:00,68.8,41.5,29.76,NW,305,1.0,1.0,37,0.00,,---,0.00,VWS V14.01,2015-05-22 20:03:00,
2015-05-22 16:04:00,68.8,41.5,29.76,NW,304,0.0,1.0,37,0.00,,---,0.00,VWS V14.01,2015-05-22 20:04:00,
2015-05-22 16:05:00,68.7,40.0,29.76,NW,322,2.0,2.0,35,0.00,,---,0.00,VWS V14.01,2015-05-22 20:05:00,
2015-05-22 16:07:00,71.4,42.3,29.74,West,260,0.0,2.0,35,0.00,,---,0.00,VWS V14.01,2015-05-22 20:07:00,
2015-05-22 16:12:00,71.1,41.3,29.74,NW,325,5.0,6.0,34,0.00,,---,0.00,VWS V14.01,2015-05-22 20:12:00,
2015-05-22 16:17:00,70.2,41.3,29.74,NW,313,2.0,4.0,35,0.00,,---,0.00,VWS V14.01,2015-05-22 20:17:00,
2015-05-22 16:22:00,69.8,40.9,29.74,NW,318,1.0,3.0,35,0.00,,---,0.00,VWS V14.01,2015-05-22 20:22:00,
2015-05-22 16:27:00,69.9,41.8,29.74,SSE,148,3.0,3.0,36,0.00,,---,0.00,VWS V14.01,2015-05-22 20:27:00,
2015-05-22 16:32:00,70.2,41.3,29.75,WNW,302,2.0,3.0,35,0.00,,---,0.00,VWS V14.01,2015-05-22 20:32:00,
2015-05-22 16:37:00,70.3,41.4,29.75,NW,304,2.0,4.0,35,0.00,,---,0.00,VWS V14.01,2015-05-22 20:37:00,
2015-05-22 16:42:00,70.3,40.6,29.75,NNW,328,3.0,5.0,34,0.00,,---,0.00,VWS V14.01,2015-05-22 20:42:00,
2015-05-22 16:47:00,70.1,41.2,29.75,ESE,122,0.0,3.0,35,0.00,,---,0.00,VWS V14.01,2015-05-22 20:47:00,
2015-05-22 16:48:00,66.9,39.1,29.78,NNW,331,4.0,9.0,36,0.00,,---,0.00,VWS V14.01,2015-05-22 20:48:00,
2015-05-22 16:49:00,66.9,39.1,29.78,NNW,333,1.0,9.0,36,0.00,,---,0.00,VWS V14.01,2015-05-22 20:49:00,
2015-05-22 16:50:00,67.0,37.7,29.78,WNW,303,0.0,3.0,34,0.00,,---,0.00,VWS V14.01,2015-05-22 20:50:00,
2015-05-22 16:51:00,67.0,38.5,29.78,WNW,303,3.0,3.0,35,0.00,,---,0.00,VWS V14.01,2015-05-22 20:51:00,
2015-05-22 16:52:00,69.4,40.6,29.76,NW,304,1.0,4.0,35,0.00,,---,0.00,VWS V14.01,2015-05-22 20:52:00,
2015-05-22 16:53:00,67.0,37.7,29.78,NW,306,3.0,3.0,34,0.00,,---,0.00,VWS V14.01,2015-05-22 20:53:00,
2015-05-22 16:54:00,67.0,37.7,29.79,NW,317,3.0,3.0,34,0.00,,---,0.00,VWS V14.01,2015-05-22 20:54:00,
2015-05-22 16:55:00,67.1,37.8,29.78,NW,317,0.0,4.0,34,0.00,,---,0.00,VWS V14.01,2015-05-22 20:55:00,
2015-05-22 16:56:00,67.1,37.8,29.78,NNW,327,1.0,4.0,34,0.00,,---,0.00,VWS V14.01,2015-05-22 20:56:00,
2015-05-22 16:57:00,68.8,39.3,29.76,NW,305,0.0,3.0,34,0.00,,---,0.00,VWS V14.01,2015-05-22 20:57:00,
2015-05-22 17:02:00,68.8,40.1,29.76,NW,305,0.0,2.0,35,0.00,,---,0.00,VWS V14.01,2015-05-22 21:02:00,
2015-05-22 17:07:00,68.6,39.1,29.77,NW,320,0.0,4.0,34,0.00,,---,0.00,VWS V14.01,2015-05-22 21:07:00,
2015-05-22 17:12:00,68.3,38.1,29.77,West,260,0.0,2.0,33,0.00,,---,0.00,VWS V14.01,2015-05-22 21:12:00,
2015-05-22 17:17:00,67.8,38.4,29.77,West,279,0.0,2.0,34,0.00,,---,0.00,VWS V14.01,2015-05-22 21:17:00,
2015-05-22 17:22:00,67.5,38.9,29.77,West,279,0.0,1.0,35,0.00,,---,0.00,VWS V14.01,2015-05-22 21:22:00,
2015-05-22 17:23:00,66.3,34.8,29.80,NW,318,0.0,0.0,31,0.00,,---,0.00,VWS V14.01,2015-05-22 21:23:00,
2015-05-22 17:24:00,66.2,35.5,29.80,NW,318,1.0,1.0,32,0.00,,---,0.00,VWS V14.01,2015-05-22 21:24:00,
2015-05-22 17:25:00,66.2,35.5,29.80,NW,318,0.0,0.0,32,0.00,,---,0.00,VWS V14.01,2015-05-22 21:25:00,
2015-05-22 17:26:00,66.2,36.3,29.80,NW,318,0.0,0.0,33,0.00,,---,0.00,VWS V14.01,2015-05-22 21:26:00,
2015-05-22 17:27:00,67.3,38.0,29.78,NW,313,0.0,1.0,34,0.00,,---,0.00,VWS V14.01,2015-05-22 21:27:00,
2015-05-22 17:32:00,67.1,38.6,29.78,NW,316,1.0,4.0,35,0.00,,---,0.00,VWS V14.01,2015-05-22 21:32:00,
2015-05-22 17:37:00,67.0,38.5,29.78,NW,316,3.0,3.0,35,0.00,,---,0.00,VWS V14.01,2015-05-22 21:37:00,
2015-05-22 17:42:00,66.8,37.6,29.78,NW,311,1.0,1.0,34,0.00,,---,0.00,VWS V14.01,2015-05-22 21:42:00,
2015-05-22 17:47:00,66.8,37.6,29.78,NNW,334,4.0,6.0,34,0.00,,---,0.00,VWS V14.01,2015-05-22 21:47:00,
2015-05-22 17:52:00,67.0,37.7,29.78,NW,315,5.0,6.0,34,0.00,,---,0.00,VWS V14.01,2015-05-22 21:52:00,
2015-05-22 17:57:00,67.1,37.8,29.78,NNW,327,0.0,1.0,34,0.00,,---,0.00,VWS V14.01,2015-05-22 21:57:00,
2015-05-22 18:02:00,67.0,37.7,29.79,West,273,1.0,1.0,34,0.00,,---,0.00,VWS V14.01,2015-05-22 22:02:00,
2015-05-22 18:07:00,66.8,36.0,29.79,NW,307,0.0,2.0,32,0.00,,---,0.00,VWS V14.01,2015-05-22 22:07:00,
2015-05-22 18:12:00,66.6,35.8,29.79,NW,324,2.0,3.0,32,0.00,,---,0.00,VWS V14.01,2015-05-22 22:12:00,
2015-05-22 18:17:00,66.5,35.0,29.80,NW,326,1.0,5.0,31,0.00,,---,0.00,VWS V14.01,2015-05-22 22:17:00,
2015-05-22 18:18:00,64.0,34.3,29.83,NW,315,0.0,0.0,33,0.00,,---,0.00,VWS V14.01,2015-05-22 22:18:00,
2015-05-22 18:19:00,63.9,34.3,29.83,NW,315,0.0,1.0,33,0.00,,---,0.00,VWS V14.01,2015-05-22 22:19:00,
2015-05-22 18:20:00,63.9,34.3,29.83,NW,315,0.0,3.0,33,0.00,,---,0.00,VWS V14.01,2015-05-22 22:20:00,
2015-05-22 18:21:00,63.8,33.4,29.83,NW,315,0.0,1.0,32,0.00,,---,0.00,VWS V14.01,2015-05-22 22:21:00,
2015-05-22 18:22:00,66.3,34.8,29.80,NW,318,0.0,0.0,31,0.00,,---,0.00,VWS V14.01,2015-05-22 22:22:00,
2015-05-22 18:27:00,66.1,35.4,29.80,NW,321,2.0,4.0,32,0.00,,---,0.00,VWS V14.01,2015-05-22 22:27:00,
2015-05-22 18:32:00,65.9,34.4,29.80,NW,307,0.0,1.0,31,0.00,,---,0.00,VWS V14.01,2015-05-22 22:32:00,
2015-05-22 18:37:00,65.7,35.8,29.80,WNW,300,2.0,2.0,33,0.00,,---,0.00,VWS V14.01,2015-05-22 22:37:00,
2015-05-22 18:39:00,62.9,33.4,29.85,WNW,294,0.0,0.0,33,0.00,,---,0.00,VWS V14.01,2015-05-22 22:39:00,
2015-05-22 18:40:00,62.9,34.1,29.85,WNW,294,0.0,0.0,34,0.00,,---,0.00,VWS V14.01,2015-05-22 22:40:00,
2015-05-22 18:41:00,62.8,33.3,29.85,WNW,294,0.0,1.0,33,0.00,,---,0.00,VWS V14.01,2015-05-22 22:41:00,
2015-05-22 18:42:00,65.4,34.0,29.81,NW,305,0.0,2.0,31,0.00,,---,0.00,VWS V14.01,2015-05-22 22:42:00,
2015-05-22 18:43:00,62.6,33.1,29.85,NW,313,0.0,0.0,33,0.00,,---,0.00,VWS V14.01,2015-05-22 22:43:00,
2015-05-22 18:44:00,62.5,32.3,29.85,NW,313,0.0,1.0,32,0.00,,---,0.00,VWS V14.01,2015-05-22 22:44:00,
2015-05-22 18:47:00,65.1,35.3,29.81,NW,305,0.0,0.0,33,0.00,,---,0.00,VWS V14.01,2015-05-22 22:47:00,
2015-05-22 18:52:00,64.8,35.0,29.81,NW,304,0.0,1.0,33,0.00,,---,0.00,VWS V14.01,2015-05-22 22:52:00,
2015-05-22 18:57:00,64.7,35.0,29.81,NW,304,0.0,0.0,33,0.00,,---,0.00,VWS V14.01,2015-05-22 22:57:00,
2015-05-22 19:02:00,64.6,34.1,29.82,NW,321,1.0,6.0,32,0.00,,---,0.00,VWS V14.01,2015-05-22 23:02:00,
2015-05-22 19:07:00,64.4,33.9,29.82,NW,321,0.0,0.0,32,0.00,,---,0.00,VWS V14.01,2015-05-22 23:07:00,
2015-05-22 19:12:00,64.2,33.8,29.83,NW,307,3.0,3.0,32,0.00,,---,0.00,VWS V14.01,2015-05-22 23:12:00,
2015-05-22 19:14:00,60.9,33.8,29.87,NNW,345,1.0,1.0,36,0.00,,---,0.00,VWS V14.01,2015-05-22 23:14:00,
2015-05-22 19:15:00,60.8,33.7,29.87,NNW,345,0.0,0.0,36,0.00,,---,0.00,VWS V14.01,2015-05-22 23:15:00,
2015-05-22 19:16:00,60.7,33.6,29.87,NNW,345,0.0,1.0,36,0.00,,---,0.00,VWS V14.01,2015-05-22 23:16:00,
2015-05-22 19:17:00,64.0,33.6,29.83,NW,315,0.0,1.0,32,0.00,,---,0.00,VWS V14.01,2015-05-22 23:17:00,
2015-05-22 19:18:00,60.6,32.8,29.87,WNW,302,0.0,0.0,35,0.00,,---,0.00,VWS V14.01,2015-05-22 23:18:00,
2015-05-22 19:22:00,63.7,33.3,29.83,NW,315,0.0,0.0,32,0.00,,---,0.00,VWS V14.01,2015-05-22 23:22:00,
2015-05-22 19:27:00,63.5,34.7,29.84,WNW,287,1.0,1.0,34,0.00,,---,0.00,VWS V14.01,2015-05-22 23:27:00,
2015-05-22 19:32:00,63.2,32.9,29.84,WNW,290,2.0,2.0,32,0.00,,---,0.00,VWS V14.01,2015-05-22 23:32:00,
2015-05-22 19:37:00,63.0,32.7,29.85,WNW,294,0.0,0.0,32,0.00,,---,0.00,VWS V14.01,2015-05-22 23:37:00,
2015-05-22 19:42:00,62.7,33.2,29.85,NW,313,0.0,4.0,33,0.00,,---,0.00,VWS V14.01,2015-05-22 23:42:00,
2015-05-22 19:47:00,62.3,32.1,29.85,NW,313,1.0,1.0,32,0.00,,---,0.00,VWS V14.01,2015-05-22 23:47:00,
2015-05-22 19:52:00,62.1,32.7,29.86,WNW,302,0.0,1.0,33,0.00,,---,0.00,VWS V14.01,2015-05-22 23:52:00,
2015-05-22 19:57:00,61.9,33.2,29.86,North,360,0.0,1.0,34,0.00,,---,0.00,VWS V14.01,2015-05-22 23:57:00,
2015-05-22 20:02:00,61.7,33.1,29.87,East,90,0.0,0.0,34,0.00,,---,0.00,VWS V14.01,2015-05-23 00:02:00,
2015-05-22 20:07:00,61.4,32.8,29.87,NE,48,0.0,0.0,34,0.00,,---,0.00,VWS V14.01,2015-05-23 00:07:00,
2015-05-22 20:12:00,61.1,33.3,29.87,NNW,345,0.0,1.0,35,0.00,,---,0.00,VWS V14.01,2015-05-23 00:12:00,
2015-05-22 20:17:00,60.7,32.9,29.87,NW,319,2.0,3.0,35,0.00,,---,0.00,VWS V14.01,2015-05-23 00:17:00,
2015-05-22 20:22:00,60.5,33.4,29.88,WNW,302,0.0,2.0,36,0.00,,---,0.00,VWS V14.01,2015-05-23 00:22:00,
2015-05-22 20:27:00,60.4,33.3,29.88,WNW,302,1.0,1.0,36,0.00,,---,0.00,VWS V14.01,2015-05-23 00:27:00,
2015-05-22 20:32:00,60.3,33.3,29.89,NW,309,0.0,0.0,36,0.00,,---,0.00,VWS V14.01,2015-05-23 00:32:00,
2015-05-22 20:37:00,60.2,33.8,29.89,NW,304,0.0,0.0,37,0.00,,---,0.00,VWS V14.01,2015-05-23 00:37:00,
2015-05-22 20:42:00,60.0,34.3,29.90,NW,304,0.0,0.0,38,0.00,,---,0.00,VWS V14.01,2015-05-23 00:42:00,
2015-05-22 20:47:00,59.8,33.5,29.90,NW,304,1.0,1.0,37,0.00,,---,0.00,VWS V14.01,2015-05-23 00:47:00,
2015-05-22 20:52:00,59.5,33.9,29.90,NW,304,1.0,1.0,38,0.00,,---,0.00,VWS V14.01,2015-05-23 00:52:00,
2015-05-22 20:57:00,59.1,33.5,29.91,WNW,303,0.0,0.0,38,0.00,,---,0.00,VWS V14.01,2015-05-23 00:57:00,
2015-05-22 21:02:00,59.0,33.5,29.91,WNW,303,0.0,2.0,38,0.00,,---,0.00,VWS V14.01,2015-05-23 01:02:00,
2015-05-22 21:07:00,59.0,33.5,29.91,NNW,327,0.0,0.0,38,0.00,,---,0.00,VWS V14.01,2015-05-23 01:07:00,
2015-05-22 21:08:00,56.6,32.6,29.93,NW,313,0.0,0.0,40,0.00,,---,0.00,VWS V14.01,2015-05-23 01:08:00,
2015-05-22 21:09:00,56.6,32.6,29.93,NW,313,0.0,0.0,40,0.00,,---,0.00,VWS V14.01,2015-05-23 01:09:00,
2015-05-22 21:10:00,56.5,35.4,29.94,NW,313,0.0,0.0,45,0.00,,---,0.00,VWS V14.01,2015-05-23 01:10:00,
2015-05-22 21:11:00,56.4,35.3,29.94,NW,313,0.0,0.0,45,0.00,,---,0.00,VWS V14.01,2015-05-23 01:11:00,
2015-05-22 21:12:00,59.0,32.8,29.91,NW,313,1.0,2.0,37,0.00,,---,0.00,VWS V14.01,2015-05-23 01:12:00,
2015-05-22 21:17:00,59.0,32.8,29.92,NW,313,0.0,0.0,37,0.00,,---,0.00,VWS V14.01,2015-05-23 01:17:00,
2015-05-22 21:22:00,58.9,32.7,29.92,WNW,296,1.0,1.0,37,0.00,,---,0.00,VWS V14.01,2015-05-23 01:22:00,
2015-05-22 21:26:00,54.9,32.8,29.94,NW,313,1.0,1.0,43,0.00,,---,0.00,VWS V14.01,2015-05-23 01:26:00,
2015-05-22 21:27:00,58.6,32.4,29.92,WNW,296,0.0,0.0,37,0.00,,---,0.00,VWS V14.01,2015-05-23 01:27:00,
2015-05-22 21:28:00,54.8,32.8,29.94,NW,313,0.0,0.0,43,0.00,,---,0.00,VWS V14.01,2015-05-23 01:28:00,
2015-05-22 21:29:00,54.8,32.8,29.94,NW,313,0.0,1.0,43,0.00,,---,0.00,VWS V14.01,2015-05-23 01:29:00,
2015-05-22 21:30:00,54.8,32.8,29.94,NW,313,0.0,0.0,43,0.00,,---,0.00,VWS V14.01,2015-05-23 01:30:00,
2015-05-22 21:32:00,58.3,32.8,29.92,WNW,296,0.0,1.0,38,0.00,,---,0.00,VWS V14.01,2015-05-23 01:32:00,
2015-05-22 21:37:00,58.0,32.6,29.93,NW,325,0.0,0.0,38,0.00,,---,0.00,VWS V14.01,2015-05-23 01:37:00,
2015-05-22 21:42:00,57.8,32.4,29.93,NW,325,1.0,1.0,38,0.00,,---,0.00,VWS V14.01,2015-05-23 01:42:00,
2015-05-22 21:47:00,57.6,32.2,29.93,NW,313,0.0,0.0,38,0.00,,---,0.00,VWS V14.01,2015-05-23 01:47:00,
2015-05-22 21:52:00,57.3,31.9,29.93,NW,313,1.0,2.0,38,0.00,,---,0.00,VWS V14.01,2015-05-23 01:52:00,
2015-05-22 21:57:00,57.2,32.5,29.93,NW,313,0.0,0.0,39,0.00,,---,0.00,VWS V14.01,2015-05-23 01:57:00,
2015-05-22 22:02:00,57.0,31.7,29.93,NW,313,0.0,0.0,38,0.00,,---,0.00,VWS V14.01,2015-05-23 02:02:00,
2015-05-22 22:06:00,56.7,32.0,29.93,NW,313,0.0,0.0,39,0.00,,---,0.00,VWS V14.01,2015-05-23 02:06:00,
2015-05-22 22:11:00,56.3,33.5,29.94,NW,313,0.0,0.0,42,0.00,,---,0.00,VWS V14.01,2015-05-23 02:11:00,
2015-05-22 22:16:00,55.8,33.1,29.94,NW,313,0.0,0.0,42,0.00,,---,0.00,VWS V14.01,2015-05-23 02:16:00,
2015-05-22 22:21:00,55.2,31.9,29.94,NW,313,0.0,0.0,41,0.00,,---,0.00,VWS V14.01,2015-05-23 02:21:00,
2015-05-22 22:26:00,54.9,32.8,29.94,NW,313,0.0,0.0,43,0.00,,---,0.00,VWS V14.01,2015-05-23 02:26:00,
2015-05-22 22:31:00,54.7,32.7,29.94,NW,313,0.0,0.0,43,0.00,,---,0.00,VWS V14.01,2015-05-23 02:31:00,
2015-05-22 22:36:00,54.5,32.5,29.94,NW,313,0.0,0.0,43,0.00,,---,0.00,VWS V14.01,2015-05-23 02:36:00,
2015-05-22 22:41:00,54.5,33.6,29.95,NW,313,0.0,0.0,45,0.00,,---,0.00,VWS V14.01,2015-05-23 02:41:00,
2015-05-22 22:46:00,54.4,32.4,29.95,NW,313,0.0,0.0,43,0.00,,---,0.00,VWS V14.01,2015-05-23 02:46:00,
2015-05-22 22:51:00,54.4,34.6,29.95,NW,313,0.0,0.0,47,0.00,,---,0.00,VWS V14.01,2015-05-23 02:51:00,
2015-05-22 22:56:00,54.1,34.9,29.95,NW,313,0.0,0.0,48,0.00,,---,0.00,VWS V14.01,2015-05-23 02:56:00,
2015-05-22 23:01:00,53.8,33.5,29.96,NW,313,0.0,0.0,46,0.00,,---,0.00,VWS V14.01,2015-05-23 03:01:00,
2015-05-22 23:06:00,53.5,34.3,29.96,NW,313,0.0,0.0,48,0.00,,---,0.00,VWS V14.01,2015-05-23 03:06:00,
2015-05-22 23:11:00,53.2,34.5,29.96,NW,313,0.0,0.0,49,0.00,,---,0.00,VWS V14.01,2015-05-23 03:11:00,
2015-05-22 23:16:00,52.8,34.7,29.96,NW,313,0.0,0.0,50,0.00,,---,0.00,VWS V14.01,2015-05-23 03:16:00,
2015-05-22 23:21:00,52.4,34.3,29.96,NW,313,0.0,0.0,50,0.00,,---,0.00,VWS V14.01,2015-05-23 03:21:00,
2015-05-22 23:26:00,52.0,34.0,29.96,NW,313,0.0,0.0,50,0.00,,---,0.00,VWS V14.01,2015-05-23 03:26:00,
2015-05-22 23:31:00,51.6,34.1,29.96,NW,313,0.0,0.0,51,0.00,,---,0.00,VWS V14.01,2015-05-23 03:31:00,
2015-05-22 23:36:00,51.2,34.2,29.97,NW,313,0.0,0.0,52,0.00,,---,0.00,VWS V14.01,2015-05-23 03:36:00,